Time;durP1;ratioP1;P1;durP2;ratioP2;P2;SDS_P1;SDS_P2;PMS_P1;PMS_P2;Temp;Humidity;BMP_temperature;BMP_pressure;BME280_temperature;BME280_humidity;BME280_pressure;Samples;Min_cycle;Max_cycle;Signal;HPM_P1;HPM_P2
2022/10/28 00:00:05;;;;;;;9.60;5.00;;;15.10;99.90;;;;;;5083296;28;20123;-74
2022/10/28 00:02:31;;;;;;;7.82;4.45;;;15.00;99.90;;;;;;5098890;28;20695;-74
2022/10/28 00:04:57;;;;;;;7.40;5.13;;;15.00;99.90;;;;;;5101422;28;20118;-75
2022/10/28 00:07:23;;;;;;;7.82;5.13;;;15.00;99.90;;;;;;5100516;28;20144;-76
2022/10/28 00:09:49;;;;;;;9.40;4.88;;;15.00;99.90;;;;;;5098280;28;20032;-75
2022/10/28 00:12:16;;;;;;;11.38;5.60;;;15.00;99.90;;;;;;5100597;28;20062;-73
2022/10/28 00:14:42;;;;;;;10.27;5.20;;;15.00;99.90;;;;;;5104130;28;20072;-75
2022/10/28 00:17:08;;;;;;;8.57;5.22;;;15.00;99.90;;;;;;5083844;28;20031;-74
2022/10/28 00:19:34;;;;;;;6.90;4.47;;;15.00;99.90;;;;;;5101954;28;20032;-74
2022/10/28 00:21:59;;;;;;;7.75;5.60;;;15.00;99.90;;;;;;5098508;28;20028;-73
2022/10/28 00:24:25;;;;;;;12.40;5.22;;;14.90;99.90;;;;;;5087727;28;20059;-74
2022/10/28 00:26:51;;;;;;;8.50;5.15;;;14.90;99.90;;;;;;5081127;28;20067;-75
2022/10/28 00:29:18;;;;;;;9.25;4.80;;;14.90;99.90;;;;;;5103274;28;20025;-73
2022/10/28 00:31:45;;;;;;;10.55;4.93;;;14.90;99.90;;;;;;5080173;28;20032;-74
2022/10/28 00:34:16;;;;;;;12.35;5.40;;;14.90;99.90;;;;;;5100002;28;20056;-74
2022/10/28 00:36:43;;;;;;;9.38;4.82;;;14.80;99.90;;;;;;5097717;28;20039;-73
2022/10/28 00:39:14;;;;;;;7.55;5.13;;;14.80;99.90;;;;;;5087186;28;20032;-73
2022/10/28 00:41:44;;;;;;;7.63;4.32;;;14.80;99.90;;;;;;5085503;28;20084;-74
2022/10/28 00:44:51;;;;;;;11.05;4.97;;;14.80;99.90;;;;;;5100680;28;20039;-75
2022/10/28 00:47:38;;;;;;;11.38;5.53;;;14.80;99.90;;;;;;5099166;28;20028;-74
2022/10/28 00:50:35;;;;;;;9.88;5.15;;;14.70;99.90;;;;;;5097843;28;20107;-73
2022/10/28 00:53:05;;;;;;;8.45;5.15;;;14.70;99.90;;;;;;5069223;28;20039;-75
2022/10/28 00:55:32;;;;;;;7.22;5.25;;;14.70;99.90;;;;;;5106834;27;20062;-76
2022/10/28 00:57:59;;;;;;;9.70;5.47;;;14.70;99.90;;;;;;5084542;27;20407;-75
2022/10/28 01:00:25;;;;;;;10.00;6.28;;;14.60;99.90;;;;;;5110285;27;20497;-75
2022/10/28 01:02:51;;;;;;;11.27;5.93;;;14.60;99.90;;;;;;5089278;28;20110;-75
2022/10/28 01:05:23;;;;;;;9.02;5.40;;;14.70;99.90;;;;;;5092636;28;20076;-74
2022/10/28 01:07:56;;;;;;;9.80;5.22;;;14.70;99.90;;;;;;5071898;28;20019;-75
2022/10/28 01:10:31;;;;;;;7.38;5.05;;;14.70;99.90;;;;;;5107495;27;20026;-75
2022/10/28 01:13:27;;;;;;;7.72;5.25;;;14.70;99.90;;;;;;5102072;28;20031;-75
2022/10/28 01:16:11;;;;;;;11.55;4.90;;;14.70;99.90;;;;;;5093876;28;20062;-75
2022/10/28 01:18:53;;;;;;;9.43;5.25;;;14.70;99.90;;;;;;5100293;27;20054;-75
2022/10/28 01:21:57;;;;;;;7.80;4.90;;;14.70;99.90;;;;;;5103148;27;20458;-75
2022/10/28 01:24:56;;;;;;;9.18;5.50;;;14.70;99.90;;;;;;5023250;28;20033;-75
2022/10/28 01:27:44;;;;;;;8.73;5.28;;;14.70;99.90;;;;;;5025256;28;20034;-75
2022/10/28 01:30:19;;;;;;;9.80;5.03;;;14.70;99.90;;;;;;5042858;28;20524;-75
2022/10/28 01:32:50;;;;;;;8.25;5.78;;;14.70;99.90;;;;;;5038563;28;20102;-74
2022/10/28 01:35:19;;;;;;;8.48;5.00;;;14.70;99.90;;;;;;5042731;28;20025;-75
2022/10/28 01:38:34;;;;;;;12.05;5.63;;;14.70;99.90;;;;;;5045571;28;20057;-75
2022/10/28 01:41:14;;;;;;;9.20;5.05;;;14.60;99.90;;;;;;5029558;28;20078;-75
2022/10/28 01:43:51;;;;;;;11.33;6.00;;;14.60;99.90;;;;;;5047056;28;20079;-75
2022/10/28 01:46:25;;;;;;;10.27;5.97;;;14.50;99.90;;;;;;5027085;28;20124;-74
2022/10/28 01:49:04;;;;;;;10.98;5.05;;;14.50;99.90;;;;;;5040643;28;20489;-74
2022/10/28 01:51:35;;;;;;;7.40;5.30;;;14.60;99.90;;;;;;5026164;28;20713;-74
2022/10/28 01:54:04;;;;;;;11.07;5.65;;;14.50;99.90;;;;;;5028659;28;20110;-74
2022/10/28 01:56:35;;;;;;;9.15;5.38;;;14.50;99.90;;;;;;5038128;28;20056;-74
2022/10/28 01:59:06;;;;;;;9.88;5.07;;;14.50;99.90;;;;;;5092659;28;20047;-75
2022/10/28 02:01:32;;;;;;;;;;;14.50;99.90;;;;;;5103434;28;20064;-77
2022/10/28 02:03:58;;;;;;;9.57;5.45;;;14.50;99.90;;;;;;5083452;28;20406;-76
2022/10/28 02:06:27;;;;;;;8.90;5.45;;;14.50;99.90;;;;;;5097980;27;20040;-74
2022/10/28 02:08:56;;;;;;;13.73;6.00;;;14.50;99.90;;;;;;5092487;28;20107;-75
2022/10/28 02:11:21;;;;;;;11.43;6.18;;;14.50;99.90;;;;;;5101367;27;20028;-74
2022/10/28 02:13:57;;;;;;;12.05;5.40;;;14.50;99.90;;;;;;5102859;27;20081;-74
2022/10/28 02:16:22;;;;;;;7.88;5.22;;;14.50;99.90;;;;;;5103999;27;20027;-75
2022/10/28 02:18:53;;;;;;;9.90;5.68;;;14.60;99.90;;;;;;5106154;27;20038;-76
2022/10/28 02:21:25;;;;;;;;;;;14.50;99.90;;;;;;5087110;28;20038;-75
2022/10/28 02:24:05;;;;;;;8.02;5.25;;;14.60;99.90;;;;;;5085209;28;20365;-74
2022/10/28 02:26:42;;;;;;;10.27;4.65;;;14.50;99.90;;;;;;5068810;27;20035;-75
2022/10/28 02:29:22;;;;;;;8.20;5.47;;;14.50;99.90;;;;;;5102292;28;20031;-74
2022/10/28 02:31:50;;;;;;;10.07;5.65;;;14.50;99.90;;;;;;5101910;28;20039;-74
2022/10/28 02:34:20;;;;;;;9.18;5.78;;;14.50;99.90;;;;;;5100768;27;20028;-74
2022/10/28 02:36:50;;;;;;;10.57;5.80;;;14.40;99.90;;;;;;5101945;27;20028;-74
2022/10/28 02:39:20;;;;;;;9.05;5.13;;;14.40;99.90;;;;;;5097080;27;20031;-74
2022/10/28 02:41:59;;;;;;;10.60;5.82;;;14.40;99.90;;;;;;5099755;28;20387;-74
2022/10/28 02:44:33;;;;;;;14.63;6.10;;;14.40;99.90;;;;;;5090338;28;20032;-74
2022/10/28 02:47:04;;;;;;;11.38;5.63;;;14.40;99.90;;;;;;5092052;28;20376;-74
2022/10/28 02:49:32;;;;;;;9.73;5.50;;;14.40;99.90;;;;;;5109269;28;20030;-75
2022/10/28 02:52:01;;;;;;;12.05;6.68;;;14.40;99.90;;;;;;5102668;27;20436;-75
2022/10/28 02:54:38;;;;;;;9.07;5.20;;;14.30;99.90;;;;;;5079859;28;20024;-76
2022/10/28 02:57:28;;;;;;;10.73;6.18;;;14.30;99.90;;;;;;5098571;28;20059;-75
2022/10/28 02:59:57;;;;;;;9.40;5.57;;;14.30;99.90;;;;;;5102143;27;20031;-75
2022/10/28 03:02:23;;;;;;;11.15;5.85;;;14.30;99.90;;;;;;5101341;27;20160;-75
2022/10/28 03:04:49;;;;;;;7.55;5.45;;;14.30;99.90;;;;;;5101148;28;20111;-74
2022/10/28 03:07:15;;;;;;;9.02;5.20;;;14.20;99.90;;;;;;5101242;27;20166;-74
2022/10/28 03:09:41;;;;;;;9.98;5.90;;;14.30;99.90;;;;;;5067059;28;20435;-74
2022/10/28 03:12:07;;;;;;;8.50;5.40;;;14.30;99.90;;;;;;5097446;28;20056;-74
2022/10/28 03:14:32;;;;;;;8.57;5.70;;;14.20;99.90;;;;;;5099641;28;20431;-75
2022/10/28 03:16:58;;;;;;;9.52;6.05;;;14.30;99.90;;;;;;5095722;27;20059;-75
2022/10/28 03:19:23;;;;;;;8.45;5.25;;;14.30;99.90;;;;;;5062326;28;20020;-75
2022/10/28 03:21:49;;;;;;;12.13;5.32;;;14.30;99.90;;;;;;5099062;28;20028;-75
2022/10/28 03:24:15;;;;;;;9.77;5.43;;;14.20;99.90;;;;;;5091330;28;20024;-75
2022/10/28 03:26:41;;;;;;;7.32;4.95;;;14.30;99.90;;;;;;5083496;28;20059;-74
2022/10/28 03:29:06;;;;;;;8.82;5.80;;;14.30;99.90;;;;;;5096666;28;20066;-75
2022/10/28 03:31:32;;;;;;;12.75;5.78;;;14.30;99.90;;;;;;5077701;28;20030;-74
2022/10/28 03:33:58;;;;;;;9.48;5.38;;;14.30;99.90;;;;;;5086824;28;20031;-74
2022/10/28 03:36:25;;;;;;;11.52;5.75;;;14.30;99.90;;;;;;5081412;28;20023;-74
2022/10/28 03:38:51;;;;;;;10.52;5.93;;;14.30;99.90;;;;;;5099711;27;20031;-74
2022/10/28 03:41:17;;;;;;;10.48;5.53;;;14.40;99.90;;;;;;5099641;28;20439;-74
2022/10/28 03:43:44;;;;;;;8.32;5.47;;;14.40;99.90;;;;;;5082481;28;20407;-75
2022/10/28 03:46:09;;;;;;;11.70;5.80;;;14.40;99.90;;;;;;5111952;27;20034;-74
2022/10/28 03:48:36;;;;;;;9.38;5.70;;;14.40;99.90;;;;;;5098662;28;20031;-75
2022/10/28 03:51:02;;;;;;;8.25;4.68;;;14.40;99.90;;;;;;5087362;28;20030;-75
2022/10/28 03:53:28;;;;;;;9.40;4.88;;;14.40;99.90;;;;;;5098121;28;20024;-74
2022/10/28 03:55:55;;;;;;;8.98;5.78;;;14.40;99.90;;;;;;5092707;28;20108;-75
2022/10/28 03:58:22;;;;;;;10.20;6.25;;;14.40;99.90;;;;;;5097067;28;20023;-74
2022/10/28 04:00:48;;;;;;;9.45;5.38;;;14.40;99.90;;;;;;5103407;28;20376;-75
2022/10/28 04:03:15;;;;;;;9.75;5.07;;;14.40;99.90;;;;;;5080119;28;20034;-75
2022/10/28 04:05:41;;;;;;;9.38;5.65;;;14.40;99.90;;;;;;5094957;28;20020;-74
2022/10/28 04:08:07;;;;;;;9.13;5.35;;;14.40;99.90;;;;;;5100794;28;20108;-75
2022/10/28 04:10:33;;;;;;;10.18;5.50;;;14.40;99.90;;;;;;5100116;28;20047;-74
2022/10/28 04:13:00;;;;;;;9.20;5.55;;;14.40;99.90;;;;;;5102868;28;20038;-74
2022/10/28 04:15:26;;;;;;;9.10;5.72;;;14.40;99.90;;;;;;5099393;27;20058;-74
2022/10/28 04:17:52;;;;;;;9.32;5.55;;;14.40;99.90;;;;;;5089978;28;20467;-75
2022/10/28 04:20:18;;;;;;;13.23;5.30;;;14.40;99.90;;;;;;5106827;28;20102;-75
2022/10/28 04:22:44;;;;;;;7.88;4.75;;;14.40;99.90;;;;;;5102677;27;20106;-75
2022/10/28 04:25:10;;;;;;;7.93;4.88;;;14.40;99.90;;;;;;5098014;28;20422;-75
2022/10/28 04:27:35;;;;;;;8.43;5.18;;;14.40;99.90;;;;;;5103354;27;20076;-75
2022/10/28 04:30:02;;;;;;;9.27;4.95;;;14.40;99.90;;;;;;5112445;27;20062;-75
2022/10/28 04:32:28;;;;;;;9.15;5.30;;;14.40;99.90;;;;;;5100987;28;20039;-75
2022/10/28 04:34:54;;;;;;;9.93;5.38;;;14.40;99.90;;;;;;5098785;27;20506;-75
2022/10/28 04:37:20;;;;;;;9.07;4.57;;;14.40;99.90;;;;;;5105438;28;20039;-75
2022/10/28 04:39:45;;;;;;;9.55;5.53;;;14.40;99.90;;;;;;5091047;28;20444;-75
2022/10/28 04:42:11;;;;;;;8.57;4.93;;;14.40;99.90;;;;;;5093248;28;20085;-75
2022/10/28 04:44:37;;;;;;;7.47;5.03;;;14.40;99.90;;;;;;5091504;28;20067;-76
2022/10/28 04:47:02;;;;;;;7.82;5.18;;;14.40;99.90;;;;;;5100801;27;20039;-74
2022/10/28 04:49:28;;;;;;;9.18;5.00;;;14.40;99.90;;;;;;5098412;27;20132;-76
2022/10/28 04:51:54;;;;;;;9.35;5.05;;;14.40;99.90;;;;;;5101590;28;20084;-75
2022/10/28 04:54:19;;;;;;;11.57;4.93;;;14.40;99.90;;;;;;5102028;27;20035;-74
2022/10/28 04:56:45;;;;;;;11.82;5.03;;;14.40;99.90;;;;;;5083398;28;20030;-74
2022/10/28 04:59:11;;;;;;;10.13;4.95;;;14.40;99.90;;;;;;5106609;27;20023;-75
2022/10/28 05:01:38;;;;;;;10.27;4.72;;;14.30;99.90;;;;;;5099368;28;20040;-75
2022/10/28 05:04:03;;;;;;;12.95;5.70;;;14.40;99.90;;;;;;5104960;27;20036;-74
2022/10/28 05:06:29;;;;;;;13.40;5.82;;;14.30;99.90;;;;;;5097602;27;20510;-74
2022/10/28 05:08:55;;;;;;;12.38;5.22;;;14.30;99.90;;;;;;5097755;27;20103;-76
2022/10/28 05:11:21;;;;;;;8.40;5.25;;;14.30;99.90;;;;;;5104205;27;20026;-75
2022/10/28 05:13:46;;;;;;;12.38;5.32;;;14.40;99.90;;;;;;5102196;27;20020;-72
2022/10/28 05:16:12;;;;;;;11.23;6.43;;;14.30;99.90;;;;;;5084108;28;20093;-71
2022/10/28 05:18:38;;;;;;;9.18;5.30;;;14.30;99.90;;;;;;5082257;28;20028;-75
2022/10/28 05:21:04;;;;;;;9.55;5.85;;;14.40;99.90;;;;;;5102187;27;20050;-75
2022/10/28 05:23:29;;;;;;;10.10;5.65;;;14.40;99.90;;;;;;5086952;28;20439;-75
2022/10/28 05:25:55;;;;;;;12.13;5.93;;;14.30;99.90;;;;;;5064306;28;20576;-77
2022/10/28 05:28:21;;;;;;;12.80;6.00;;;14.30;99.90;;;;;;5088455;28;20086;-76
2022/10/28 05:30:47;;;;;;;10.15;5.68;;;14.30;99.90;;;;;;5098649;27;20392;-75
2022/10/28 05:33:12;;;;;;;11.23;6.72;;;14.30;99.90;;;;;;5100882;27;20388;-75
2022/10/28 05:35:38;;;;;;;11.93;7.07;;;14.30;99.90;;;;;;5093503;28;20023;-75
2022/10/28 05:38:05;;;;;;;11.80;6.50;;;14.30;99.90;;;;;;5094112;27;20023;-77
2022/10/28 05:40:32;;;;;;;11.20;6.15;;;14.20;99.90;;;;;;5090371;27;20046;-75
2022/10/28 05:43:00;;;;;;;9.85;5.93;;;14.30;99.90;;;;;;5080302;28;20040;-75
2022/10/28 05:45:26;;;;;;;8.13;6.30;;;14.20;99.90;;;;;;5100508;27;20516;-75
2022/10/28 05:47:53;;;;;;;11.35;6.50;;;14.20;99.90;;;;;;5099377;28;20039;-77
2022/10/28 05:50:19;;;;;;;8.77;5.53;;;14.20;99.90;;;;;;5082867;28;20030;-74
2022/10/28 05:52:54;;;;;;;11.23;6.60;;;14.20;99.90;;;;;;5103546;27;20487;-73
2022/10/28 05:55:24;;;;;;;15.75;6.28;;;14.20;99.90;;;;;;5087634;28;20027;-76
2022/10/28 05:57:51;;;;;;;11.20;5.50;;;14.20;99.90;;;;;;5099383;27;20664;-76
2022/10/28 06:00:20;;;;;;;10.50;3.95;;;14.20;99.90;;;;;;5085665;28;20062;-75
2022/10/28 06:02:45;;;;;;;13.77;5.25;;;14.50;99.90;;;;;;5098926;28;20023;-75
2022/10/28 06:05:14;;;;;;;17.60;6.15;;;14.50;99.90;;;;;;5094532;28;20035;-74
2022/10/28 06:07:40;;;;;;;12.85;6.97;;;14.40;99.90;;;;;;5090489;28;20031;-75
2022/10/28 06:10:09;;;;;;;9.15;6.13;;;14.40;99.90;;;;;;5086786;28;20019;-74
2022/10/28 06:12:35;;;;;;;13.73;6.85;;;14.30;99.90;;;;;;5098884;28;20016;-74
2022/10/28 06:15:01;;;;;;;11.73;6.07;;;14.30;99.90;;;;;;5108635;28;20055;-78
2022/10/28 06:17:27;;;;;;;13.18;6.28;;;14.20;99.90;;;;;;5120235;27;20301;-75
2022/10/28 06:19:52;;;;;;;12.85;5.88;;;14.20;99.90;;;;;;5097194;27;20034;-75
2022/10/28 06:22:18;;;;;;;8.93;6.07;;;14.20;99.90;;;;;;5100304;28;20119;-76
2022/10/28 06:24:44;;;;;;;11.30;5.90;;;14.20;99.90;;;;;;5102305;27;20031;-76
2022/10/28 06:27:10;;;;;;;15.80;7.30;;;14.20;99.90;;;;;;5089542;28;20517;-75
2022/10/28 06:29:36;;;;;;;7.45;4.28;;;14.20;99.90;;;;;;5085051;28;20503;-75
2022/10/28 06:32:02;;;;;;;11.52;6.18;;;14.50;99.90;;;;;;5091862;28;20114;-74
2022/10/28 06:34:27;;;;;;;12.45;6.05;;;14.50;99.90;;;;;;5098844;27;20041;-76
2022/10/28 06:36:54;;;;;;;11.43;5.95;;;14.40;99.90;;;;;;5099057;28;20144;-75
2022/10/28 06:39:20;;;;;;;11.00;6.07;;;14.40;99.90;;;;;;5105512;27;20039;-75
2022/10/28 06:41:45;;;;;;;14.63;7.15;;;14.30;99.90;;;;;;5103549;27;20043;-74
2022/10/28 06:44:11;;;;;;;11.55;6.47;;;14.30;99.90;;;;;;5092878;28;20138;-75
2022/10/28 06:46:37;;;;;;;9.88;6.82;;;14.30;99.90;;;;;;5112559;27;20034;-75
2022/10/28 06:49:03;;;;;;;11.98;5.90;;;14.20;99.90;;;;;;5104892;27;20035;-75
2022/10/28 06:51:30;;;;;;;13.60;6.15;;;14.20;99.90;;;;;;5100550;28;20503;-75
2022/10/28 06:53:57;;;;;;;11.15;6.47;;;14.20;99.90;;;;;;5102114;27;20073;-75
2022/10/28 06:56:23;;;;;;;12.82;5.82;;;14.20;99.90;;;;;;5105363;27;20058;-75
2022/10/28 06:58:51;;;;;;;19.00;7.32;;;14.30;99.90;;;;;;5085076;28;20027;-75
2022/10/28 07:01:18;;;;;;;9.95;6.03;;;14.20;99.90;;;;;;5098884;27;20027;-76
2022/10/28 07:03:44;;;;;;;12.10;6.40;;;14.30;99.90;;;;;;5099791;27;20060;-75
2022/10/28 07:06:09;;;;;;;13.35;7.13;;;14.30;99.90;;;;;;5106623;27;20130;-75
2022/10/28 07:08:35;;;;;;;13.73;6.47;;;14.30;99.90;;;;;;5089448;28;20043;-75
2022/10/28 07:11:01;;;;;;;13.73;7.03;;;14.30;99.90;;;;;;5096533;28;20028;-75
2022/10/28 07:13:28;;;;;;;13.93;7.50;;;14.30;99.90;;;;;;5101262;27;20020;-75
2022/10/28 07:15:58;;;;;;;13.27;6.30;;;14.30;99.90;;;;;;5104651;27;20083;-75
2022/10/28 07:18:26;;;;;;;10.30;6.20;;;14.40;99.90;;;;;;5089915;28;20032;-77
2022/10/28 07:20:52;;;;;;;13.25;6.65;;;14.30;99.90;;;;;;5101999;27;20820;-75
2022/10/28 07:23:18;;;;;;;16.00;7.63;;;14.30;99.90;;;;;;5104140;27;20102;-75
2022/10/28 07:25:54;;;;;;;14.00;6.03;;;14.40;99.90;;;;;;5090918;28;20134;-74
2022/10/28 07:28:21;;;;;;;15.65;6.60;;;14.40;99.90;;;;;;5099738;28;20043;-76
2022/10/28 07:30:47;;;;;;;15.82;6.80;;;14.40;99.90;;;;;;5096759;28;20015;-75
2022/10/28 07:33:13;;;;;;;10.27;6.03;;;14.50;99.90;;;;;;5085848;28;20053;-74
2022/10/28 07:35:39;;;;;;;12.05;6.40;;;14.50;99.90;;;;;;5102586;28;20036;-75
2022/10/28 07:38:04;;;;;;;9.48;6.07;;;14.50;99.90;;;;;;5102927;27;20041;-74
2022/10/28 07:40:30;;;;;;;10.70;5.55;;;14.50;99.90;;;;;;5068685;28;20035;-76
2022/10/28 07:42:58;;;;;;;12.70;6.03;;;14.50;99.90;;;;;;5085105;28;20028;-74
2022/10/28 07:45:23;;;;;;;11.48;6.25;;;14.60;99.90;;;;;;5086780;28;20024;-74
2022/10/28 07:47:50;;;;;;;9.57;5.55;;;14.60;99.90;;;;;;5089671;28;20518;-74
2022/10/28 07:50:16;;;;;;;11.98;6.57;;;14.70;99.90;;;;;;5086429;28;20435;-75
2022/10/28 07:52:42;;;;;;;12.35;6.32;;;14.60;99.90;;;;;;5097856;28;20020;-74
2022/10/28 07:55:10;;;;;;;11.07;6.43;;;14.70;99.90;;;;;;5080010;28;21405;-75
2022/10/28 07:57:36;;;;;;;12.45;5.82;;;14.70;99.90;;;;;;5096005;27;20483;-75
2022/10/28 08:00:03;;;;;;;11.13;6.05;;;14.80;99.90;;;;;;5096322;28;20040;-74
2022/10/28 08:02:29;;;;;;;8.13;5.57;;;14.80;99.90;;;;;;5102131;28;20503;-75
2022/10/28 08:04:55;;;;;;;9.95;5.50;;;14.80;99.90;;;;;;5097343;27;20050;-75
2022/10/28 08:07:21;;;;;;;11.25;5.50;;;14.80;99.90;;;;;;5107022;28;20020;-75
2022/10/28 08:09:47;;;;;;;9.82;6.00;;;14.90;99.90;;;;;;5092452;28;20019;-75
2022/10/28 08:12:14;;;;;;;13.63;5.70;;;14.90;99.90;;;;;;5098584;27;20102;-75
2022/10/28 08:14:40;;;;;;;10.00;5.97;;;14.90;99.90;;;;;;5109686;27;20501;-74
2022/10/28 08:17:06;;;;;;;11.98;6.72;;;15.00;99.90;;;;;;5104512;28;20032;-74
2022/10/28 08:19:32;;;;;;;8.10;5.57;;;15.00;99.90;;;;;;5104242;28;20142;-75
2022/10/28 08:21:57;;;;;;;9.65;5.78;;;15.00;99.90;;;;;;5112552;28;20023;-74
2022/10/28 08:24:23;;;;;;;11.32;6.00;;;15.10;99.90;;;;;;5076195;28;20455;-75
2022/10/28 08:26:49;;;;;;;10.25;5.53;;;15.10;99.90;;;;;;5094601;28;20373;-74
2022/10/28 08:29:15;;;;;;;12.50;6.43;;;15.10;99.90;;;;;;5073967;28;20043;-76
2022/10/28 08:31:44;;;;;;;13.10;6.13;;;15.20;99.90;;;;;;5096218;28;20540;-76
2022/10/28 08:34:10;;;;;;;8.98;5.20;;;15.20;99.90;;;;;;5118981;28;20027;-76
2022/10/28 08:36:35;;;;;;;12.23;5.70;;;15.20;99.90;;;;;;5113065;28;20026;-74
2022/10/28 08:39:01;;;;;;;13.27;6.53;;;15.30;99.90;;;;;;5107265;28;20035;-75
2022/10/28 08:41:44;;;;;;;13.13;5.78;;;15.30;99.90;;;;;;5113135;28;20135;-75
2022/10/28 08:44:42;;;;;;;10.00;5.88;;;15.40;99.90;;;;;;5075189;28;20039;-74
2022/10/28 08:47:43;;;;;;;9.93;5.60;;;15.40;99.90;;;;;;5107882;28;20054;-74
2022/10/28 08:50:15;;;;;;;9.88;5.45;;;15.40;99.90;;;;;;5092739;28;20541;-74
2022/10/28 08:52:54;;;;;;;11.60;6.05;;;15.50;99.90;;;;;;5093764;28;20024;-75
2022/10/28 08:55:45;;;;;;;10.32;5.38;;;15.50;99.90;;;;;;5095511;28;20085;-75
2022/10/28 08:58:21;;;;;;;11.43;5.38;;;15.50;99.90;;;;;;5104493;27;20414;-75
2022/10/28 09:00:54;;;;;;;12.30;6.00;;;15.60;99.90;;;;;;5097087;28;20039;-75
2022/10/28 09:03:25;;;;;;;11.82;5.68;;;15.70;99.90;;;;;;5102708;28;20443;-74
2022/10/28 09:06:00;;;;;;;13.68;6.00;;;15.70;99.90;;;;;;5084610;28;20024;-74
2022/10/28 09:08:28;;;;;;;12.15;5.70;;;15.70;99.90;;;;;;5093638;28;20035;-73
2022/10/28 09:11:09;;;;;;;14.32;6.28;;;15.80;99.90;;;;;;5096891;28;20106;-74
2022/10/28 09:13:55;;;;;;;9.23;5.47;;;15.90;99.90;;;;;;5105712;27;20024;-74
2022/10/28 09:16:48;;;;;;;11.60;5.80;;;15.90;99.90;;;;;;5094503;27;20800;-73
2022/10/28 09:19:19;;;;;;;9.00;4.78;;;16.00;99.90;;;;;;5100920;28;20036;-74
2022/10/28 09:22:04;;;;;;;14.38;5.65;;;16.10;99.90;;;;;;5099527;28;20486;-74
2022/10/28 09:24:40;;;;;;;11.30;6.05;;;16.10;99.90;;;;;;5086626;28;20039;-74
2022/10/28 09:27:40;;;;;;;8.18;4.85;;;16.20;99.90;;;;;;5093825;28;20067;-73
2022/10/28 09:30:25;;;;;;;14.00;5.82;;;16.30;99.90;;;;;;5094312;28;20032;-77
2022/10/28 09:33:09;;;;;;;9.43;5.45;;;16.30;99.90;;;;;;5103281;28;20469;-76
2022/10/28 09:35:44;;;;;;;8.80;5.85;;;16.40;99.90;;;;;;5082380;28;20024;-76
2022/10/28 09:38:31;;;;;;;10.38;4.93;;;16.40;99.90;;;;;;5106619;27;20059;-74
2022/10/28 09:41:11;;;;;;;13.00;5.78;;;16.50;99.90;;;;;;5106790;28;20035;-74
2022/10/28 09:43:58;;;;;;;9.70;5.35;;;16.50;99.90;;;;;;5095751;28;20020;-74
2022/10/28 09:46:28;;;;;;;9.90;5.10;;;16.60;99.90;;;;;;5096722;28;20436;-74
2022/10/28 09:48:58;;;;;;;9.43;5.18;;;16.70;99.90;;;;;;5088428;28;20522;-74
2022/10/28 09:51:33;;;;;;;7.88;4.80;;;16.80;99.90;;;;;;5094595;28;20031;-74
2022/10/28 09:54:00;;;;;;;10.57;4.93;;;16.80;99.90;;;;;;5100191;28;20099;-74
2022/10/28 09:56:27;;;;;;;9.55;5.32;;;16.90;99.90;;;;;;5079528;28;20039;-75
2022/10/28 09:58:56;;;;;;;12.40;5.32;;;17.00;99.90;;;;;;5099275;28;20118;-75
2022/10/28 10:01:21;;;;;;;9.13;4.57;;;17.00;99.90;;;;;;5097623;28;20036;-74
2022/10/28 10:03:49;;;;;;;12.07;4.97;;;17.20;99.90;;;;;;5082580;28;20472;-74
2022/10/28 10:06:19;;;;;;;12.35;5.70;;;17.30;99.90;;;;;;5101353;28;20079;-74
2022/10/28 10:08:45;;;;;;;9.97;5.30;;;17.30;99.90;;;;;;5085597;28;20027;-74
2022/10/28 10:11:32;;;;;;;9.27;4.47;;;17.40;99.90;;;;;;5093523;28;20028;-74
2022/10/28 10:14:03;;;;;;;11.00;4.28;;;17.40;99.90;;;;;;5077406;28;20035;-74
2022/10/28 10:16:48;;;;;;;10.73;3.92;;;17.60;99.90;;;;;;5092298;28;20026;-74
2022/10/28 10:19:14;;;;;;;11.57;4.07;;;17.70;99.90;;;;;;5097862;28;20034;-74
2022/10/28 10:21:41;;;;;;;8.10;3.90;;;17.90;99.90;;;;;;5101866;28;20031;-75
2022/10/28 10:24:32;;;;;;;13.45;4.15;;;18.10;99.90;;;;;;5080733;28;20028;-74
2022/10/28 10:27:09;;;;;;;6.45;3.33;;;18.20;99.90;;;;;;5088723;28;20414;-75
2022/10/28 10:29:36;;;;;;;8.07;3.75;;;18.30;99.90;;;;;;5100329;28;20340;-75
2022/10/28 10:32:13;;;;;;;11.80;4.45;;;18.40;99.90;;;;;;5101104;28;20030;-75
2022/10/28 10:35:03;;;;;;;10.80;3.75;;;18.50;99.90;;;;;;5104907;28;20100;-75
2022/10/28 10:37:32;;;;;;;9.90;5.22;;;18.80;99.90;;;;;;5069865;28;20064;-74
2022/10/28 10:40:00;;;;;;;11.95;4.82;;;19.30;99.90;;;;;;5106346;28;20039;-76
2022/10/28 10:42:26;;;;;;;11.43;3.80;;;19.70;99.90;;;;;;5083343;28;20032;-74
2022/10/28 10:45:12;;;;;;;8.45;3.72;;;20.30;99.90;;;;;;5083640;28;20114;-75
2022/10/28 10:47:37;;;;;;;8.98;3.05;;;20.80;99.90;;;;;;5101054;28;20015;-75
2022/10/28 10:50:28;;;;;;;6.03;2.70;;;21.00;99.90;;;;;;5101079;28;20016;-76
2022/10/28 10:52:57;;;;;;;7.28;3.47;;;20.90;99.90;;;;;;5096807;27;20027;-75
2022/10/28 10:55:38;;;;;;;8.82;3.78;;;20.80;99.90;;;;;;5095592;28;20028;-75
2022/10/28 10:58:13;;;;;;;9.68;3.95;;;20.70;99.90;;;;;;5076289;28;20032;-75
2022/10/28 11:00:48;;;;;;;9.48;3.90;;;20.50;99.90;;;;;;5102345;28;20024;-75
2022/10/28 11:03:19;;;;;;;10.02;4.00;;;20.30;99.90;;;;;;5095865;28;20063;-75
2022/10/28 11:05:56;;;;;;;14.55;3.33;;;20.30;99.90;;;;;;5103044;28;20239;-75
2022/10/28 11:08:42;;;;;;;8.38;3.47;;;20.20;99.90;;;;;;5101297;28;20118;-75
2022/10/28 11:11:19;;;;;;;7.50;3.35;;;20.00;99.90;;;;;;5082033;28;20028;-75
2022/10/28 11:13:46;;;;;;;6.78;3.40;;;19.90;99.90;;;;;;5088216;28;20047;-74
2022/10/28 11:16:21;;;;;;;12.18;3.58;;;19.80;99.90;;;;;;5101386;28;20087;-74
2022/10/28 11:18:49;;;;;;;9.65;3.50;;;19.80;99.90;;;;;;5082280;28;20071;-75
2022/10/28 11:21:58;;;;;;;11.25;4.00;;;19.80;99.90;;;;;;5098396;28;20145;-74
2022/10/28 11:24:38;;;;;;;12.30;4.45;;;19.70;99.90;;;;;;5098797;28;20391;-75
2022/10/28 11:27:25;;;;;;;12.30;3.65;;;19.70;99.90;;;;;;5099242;28;20051;-74
2022/10/28 11:29:51;;;;;;;8.50;3.65;;;19.80;99.90;;;;;;5084436;28;20036;-73
2022/10/28 11:32:39;;;;;;;11.88;4.10;;;19.70;99.90;;;;;;5088946;28;20051;-74
2022/10/28 11:35:35;;;;;;;13.68;3.60;;;19.80;99.90;;;;;;5097884;28;20072;-74
2022/10/28 11:38:16;;;;;;;12.75;4.10;;;19.80;99.90;;;;;;5088670;28;20024;-74
2022/10/28 11:40:55;;;;;;;10.35;4.00;;;19.80;99.90;;;;;;5080193;28;20146;-74
2022/10/28 11:43:35;;;;;;;8.27;3.35;;;19.80;99.90;;;;;;5101060;28;20107;-74
2022/10/28 11:46:10;;;;;;;6.90;3.20;;;19.80;99.90;;;;;;5095304;28;20360;-75
2022/10/28 11:49:13;;;;;;;11.68;3.70;;;19.80;99.90;;;;;;5090024;28;20019;-74
2022/10/28 11:52:18;;;;;;;11.50;4.47;;;19.70;99.90;;;;;;5102866;28;20016;-74
2022/10/28 11:54:57;;;;;;;10.05;3.95;;;19.70;99.90;;;;;;5028870;28;20060;-74
2022/10/28 11:57:47;;;;;;;7.20;3.42;;;19.80;99.90;;;;;;5043436;28;20040;-75
2022/10/28 12:00:50;;;;;;;14.05;5.00;;;19.80;99.90;;;;;;5029884;28;20492;-75
2022/10/28 12:03:46;;;;;;;7.97;3.40;;;19.90;99.90;;;;;;5043253;28;20037;-75
2022/10/28 12:06:26;;;;;;;8.73;4.15;;;20.00;99.90;;;;;;4995678;28;20491;-73
2022/10/28 12:09:11;;;;;;;12.27;4.70;;;20.10;99.90;;;;;;5029818;28;20032;-70
2022/10/28 12:11:51;;;;;;;14.10;5.20;;;20.10;99.90;;;;;;5020177;28;20026;-71
2022/10/28 12:14:34;;;;;;;11.20;4.28;;;20.10;99.90;;;;;;5014500;28;20503;-71
2022/10/28 12:17:15;;;;;;;8.80;3.92;;;20.10;99.90;;;;;;5028897;28;20357;-73
2022/10/28 12:20:32;;;;;;;10.23;3.88;;;20.10;99.90;;;;;;5021778;28;20057;-71
2022/10/28 12:23:02;;;;;;;10.05;3.75;;;20.00;99.90;;;;;;5030147;28;20045;-72
2022/10/28 12:25:33;;;;;;;12.70;4.32;;;20.00;99.90;;;;;;5049869;28;20453;-73
2022/10/28 12:28:01;;;;;;;;;;;19.80;99.90;;;;;;5105088;28;20500;-73
2022/10/28 12:30:29;;;;;;;15.65;6.60;;;19.80;99.90;;;;;;5095852;28;19955;-73
2022/10/28 12:33:11;;;;;;;18.00;7.90;;;19.70;99.90;;;;;;5085790;28;20076;-73
2022/10/28 12:35:40;;;;;;;10.80;5.05;;;19.70;99.90;;;;;;5101002;28;20043;-73
2022/10/28 12:38:30;;;;;;;8.50;4.20;;;19.70;99.90;;;;;;5107613;28;20027;-73
2022/10/28 12:41:23;;;;;;;9.10;4.25;;;19.60;99.90;;;;;;5097901;28;20086;-74
2022/10/28 12:43:59;;;;;;;13.90;4.03;;;19.70;99.90;;;;;;5100113;28;20061;-75
2022/10/28 12:46:47;;;;;;;12.45;3.83;;;19.70;99.90;;;;;;5100721;28;20042;-73
2022/10/28 12:49:36;;;;;;;7.50;4.13;;;19.70;99.90;;;;;;5108457;28;20020;-73
2022/10/28 12:52:29;;;;;;;15.13;5.07;;;19.70;99.90;;;;;;5107315;28;20028;-73
2022/10/28 12:55:00;;;;;;;6.38;3.22;;;19.70;99.90;;;;;;5096712;28;20122;-73
2022/10/28 12:57:29;;;;;;;12.93;4.43;;;19.70;99.90;;;;;;5088420;28;20028;-73
2022/10/28 13:00:06;;;;;;;55.70;26.73;;;19.80;99.90;;;;;;5103663;28;20505;-74
2022/10/28 13:02:45;;;;;;;60.63;31.00;;;19.80;99.90;;;;;;5075043;28;20511;-74
2022/10/28 13:05:22;;;;;;;55.05;28.50;;;19.90;99.90;;;;;;5101325;27;20106;-74
2022/10/28 13:08:07;;;;;;;42.85;23.33;;;19.90;99.90;;;;;;5109372;28;20028;-75